createdAt,value
2017-09-05T00:00:16.044Z,0
2017-09-05T00:00:56.587Z,0
2017-09-05T00:01:37.124Z,0
2017-09-05T00:02:17.663Z,0
2017-09-05T00:02:58.202Z,0
2017-09-05T00:03:38.739Z,0
2017-09-05T00:04:19.277Z,0
2017-09-05T00:04:59.821Z,0
2017-09-05T00:05:40.358Z,0
2017-09-05T00:06:20.894Z,0
2017-09-05T00:07:01.430Z,0
2017-09-05T00:07:41.971Z,0
2017-09-05T00:08:22.510Z,0
2017-09-05T00:09:03.049Z,0
2017-09-05T00:09:43.578Z,0
2017-09-05T00:10:24.106Z,0
2017-09-05T00:11:04.643Z,0
2017-09-05T00:11:45.184Z,0
2017-09-05T00:12:25.755Z,0
2017-09-05T00:13:06.307Z,0
2017-09-05T00:13:46.842Z,0
2017-09-05T00:14:27.386Z,0
2017-09-05T00:15:07.913Z,0
2017-09-05T00:15:48.452Z,0
2017-09-05T00:16:28.980Z,0
2017-09-05T00:17:09.516Z,0
2017-09-05T00:17:50.051Z,0
2017-09-05T00:18:30.589Z,0
2017-09-05T00:19:11.133Z,0
2017-09-05T00:19:51.670Z,0
2017-09-05T00:20:32.206Z,0
2017-09-05T00:21:12.746Z,0
2017-09-05T00:21:53.279Z,0
2017-09-05T00:22:33.815Z,0
2017-09-05T00:23:14.350Z,0
2017-09-05T00:23:54.894Z,0
2017-09-05T00:24:35.420Z,0
2017-09-05T00:25:15.992Z,0
2017-09-05T00:25:56.491Z,0
2017-09-05T00:26:37.018Z,0
2017-09-05T00:27:17.554Z,0
2017-09-05T00:27:58.096Z,0
2017-09-05T00:28:38.635Z,0
2017-09-05T00:29:19.168Z,0
2017-09-05T00:29:59.698Z,0
2017-09-05T00:30:40.241Z,0
2017-09-05T00:31:20.777Z,0
2017-09-05T00:32:01.312Z,0
2017-09-05T00:32:41.851Z,0
2017-09-05T00:33:22.387Z,0
2017-09-05T00:34:02.918Z,0
2017-09-05T00:34:43.459Z,0
2017-09-05T00:35:23.991Z,0
2017-09-05T00:36:04.528Z,0
2017-09-05T00:36:45.067Z,0
2017-09-05T00:37:25.604Z,0
2017-09-05T00:38:06.143Z,0
2017-09-05T00:38:46.682Z,0
2017-09-05T00:39:27.221Z,0
2017-09-05T00:40:07.814Z,0
2017-09-05T00:40:48.360Z,0
2017-09-05T00:41:28.897Z,0
2017-09-05T00:42:09.467Z,0
2017-09-05T00:42:49.976Z,0
2017-09-05T00:43:30.528Z,0
2017-09-05T00:44:11.056Z,0
2017-09-05T00:44:51.588Z,0
2017-09-05T00:45:32.125Z,0
2017-09-05T00:46:12.663Z,0
2017-09-05T00:46:53.202Z,0
2017-09-05T00:47:33.743Z,0
2017-09-05T00:48:14.283Z,0
2017-09-05T00:48:54.816Z,0
2017-09-05T00:49:35.350Z,0
2017-09-05T00:50:15.889Z,0
2017-09-05T00:50:56.426Z,0
2017-09-05T00:51:36.968Z,0
2017-09-05T00:52:17.486Z,0
2017-09-05T00:52:58.020Z,0
2017-09-05T00:53:38.547Z,0
2017-09-05T00:54:19.085Z,0
2017-09-05T00:54:59.621Z,0
2017-09-05T00:55:40.159Z,0
2017-09-05T00:56:20.687Z,0
2017-09-05T00:57:01.219Z,0
2017-09-05T00:57:41.752Z,0
2017-09-05T00:58:22.286Z,0
2017-09-05T00:59:02.825Z,0
2017-09-05T00:59:43.364Z,0
2017-09-05T01:00:23.948Z,0
2017-09-05T01:01:04.507Z,0
2017-09-05T01:01:45.027Z,0
2017-09-05T01:02:25.564Z,0
2017-09-05T01:03:06.105Z,0
2017-09-05T01:03:46.645Z,0
2017-09-05T01:04:27.177Z,0
2017-09-05T01:05:07.716Z,0
2017-09-05T01:05:48.248Z,0
2017-09-05T01:06:28.783Z,0
2017-09-05T01:07:09.322Z,0
2017-09-05T01:07:49.861Z,0
2017-09-05T01:08:30.399Z,0
2017-09-05T01:09:10.943Z,0
2017-09-05T01:09:51.480Z,0
2017-09-05T01:10:32.014Z,0
2017-09-05T01:11:12.548Z,0
2017-09-05T01:11:53.085Z,0
2017-09-05T01:12:33.624Z,0
2017-09-05T01:13:14.166Z,0
2017-09-05T01:13:54.704Z,0
2017-09-05T01:14:35.241Z,0
2017-09-05T01:15:15.773Z,0
2017-09-05T01:15:56.312Z,0
2017-09-05T01:16:36.852Z,0
2017-09-05T01:17:17.395Z,0
2017-09-05T01:17:57.934Z,0
2017-09-05T01:18:38.463Z,0
2017-09-05T01:19:19.009Z,0
2017-09-05T01:19:59.561Z,0
2017-09-05T01:20:40.083Z,0
2017-09-05T01:21:20.619Z,0
2017-09-05T01:22:01.154Z,0
2017-09-05T01:22:41.696Z,0
2017-09-05T01:23:22.233Z,0
2017-09-05T01:24:02.773Z,0
2017-09-05T01:24:43.312Z,0
2017-09-05T01:25:23.850Z,0
2017-09-05T01:26:04.385Z,0
2017-09-05T01:26:44.978Z,0
2017-09-05T01:27:25.518Z,0
2017-09-05T01:28:06.053Z,0
2017-09-05T01:28:46.581Z,0
2017-09-05T01:29:27.117Z,0
2017-09-05T01:30:07.659Z,0
2017-09-05T01:30:48.198Z,0
2017-09-05T01:31:28.740Z,0
2017-09-05T01:32:09.283Z,0
2017-09-05T01:32:49.822Z,0
2017-09-05T01:33:30.354Z,0
2017-09-05T01:34:10.957Z,0
2017-09-05T01:34:51.439Z,0
2017-09-05T01:35:31.977Z,0
2017-09-05T01:36:12.514Z,0
2017-09-05T01:36:53.051Z,0
2017-09-05T01:37:33.583Z,0
2017-09-05T01:38:14.125Z,0
2017-09-05T01:38:54.657Z,0
2017-09-05T01:39:35.193Z,0
2017-09-05T01:40:15.737Z,0
2017-09-05T01:40:56.275Z,0
2017-09-05T01:41:36.815Z,0
2017-09-05T01:42:17.360Z,0
2017-09-05T01:42:57.921Z,0
2017-09-05T01:43:38.433Z,0
2017-09-05T01:44:18.971Z,0
2017-09-05T01:44:59.500Z,0
2017-09-05T01:45:40.050Z,0
2017-09-05T01:46:20.584Z,0
2017-09-05T01:47:01.112Z,0
2017-09-05T01:47:41.646Z,0
2017-09-05T01:48:22.195Z,0
2017-09-05T01:49:02.731Z,0
2017-09-05T01:49:43.278Z,0
2017-09-05T01:50:23.820Z,0
2017-09-05T01:51:04.350Z,0
2017-09-05T01:51:44.884Z,0
2017-09-05T01:52:25.425Z,0
2017-09-05T01:53:05.955Z,0
2017-09-05T01:53:46.491Z,0
2017-09-05T01:54:27.035Z,0
2017-09-05T01:55:07.579Z,0
2017-09-05T01:55:48.100Z,0
2017-09-05T01:56:28.638Z,0
2017-09-05T01:57:09.178Z,0
2017-09-05T01:57:49.717Z,0
2017-09-05T01:58:30.279Z,0
2017-09-05T01:59:10.796Z,0
2017-09-05T01:59:51.325Z,0
2017-09-05T02:00:31.889Z,0
2017-09-05T02:01:12.428Z,0
2017-09-05T02:01:52.966Z,0
2017-09-05T02:02:33.506Z,0
2017-09-05T02:03:14.044Z,0
2017-09-05T02:03:54.585Z,0
2017-09-05T02:04:35.121Z,0
2017-09-05T02:05:15.659Z,0
2017-09-05T02:05:56.202Z,0
2017-09-05T02:06:36.743Z,0
2017-09-05T02:07:17.284Z,0
2017-09-05T02:07:57.818Z,0
2017-09-05T02:08:38.367Z,0
2017-09-05T02:09:18.904Z,0
2017-09-05T02:09:59.444Z,0
2017-09-05T02:10:39.985Z,0
2017-09-05T02:11:20.527Z,0
2017-09-05T02:12:01.069Z,0
2017-09-05T02:12:41.608Z,0
2017-09-05T02:13:22.143Z,0
2017-09-05T02:14:02.668Z,0
2017-09-05T02:14:43.207Z,0
2017-09-05T02:15:23.746Z,0
2017-09-05T02:16:04.282Z,0
2017-09-05T02:16:44.821Z,0
2017-09-05T02:17:25.359Z,0
2017-09-05T02:18:05.900Z,0
2017-09-05T02:18:46.432Z,0
2017-09-05T02:19:26.972Z,0
2017-09-05T02:20:07.511Z,0
2017-09-05T02:20:48.050Z,0
2017-09-05T02:21:28.586Z,0
2017-09-05T02:22:09.129Z,0
2017-09-05T02:22:49.720Z,0
2017-09-05T02:23:30.257Z,0
2017-09-05T02:24:10.797Z,0
2017-09-05T02:24:51.334Z,0
2017-09-05T02:25:31.882Z,0
2017-09-05T02:26:12.411Z,0
2017-09-05T02:26:52.941Z,0
2017-09-05T02:27:33.480Z,0
2017-09-05T02:28:14.018Z,0
2017-09-05T02:28:54.562Z,0
2017-09-05T02:29:35.096Z,0
2017-09-05T02:30:15.641Z,0
2017-09-05T02:30:56.180Z,0
2017-09-05T02:31:36.719Z,0
2017-09-05T02:32:17.258Z,0
2017-09-05T02:32:57.798Z,0
2017-09-05T02:33:38.329Z,0
2017-09-05T02:34:18.871Z,0
2017-09-05T02:34:59.413Z,0
2017-09-05T02:35:39.959Z,0
2017-09-05T02:36:20.493Z,0
2017-09-05T02:37:01.027Z,0
2017-09-05T02:37:41.563Z,0
2017-09-05T02:38:22.102Z,0
2017-09-05T02:39:02.642Z,0
2017-09-05T02:39:43.178Z,0
2017-09-05T02:40:23.719Z,0
2017-09-05T02:41:04.254Z,0
2017-09-05T02:41:44.795Z,0
2017-09-05T02:42:25.350Z,0
2017-09-05T02:43:05.867Z,0
2017-09-05T02:43:46.397Z,0
2017-09-05T02:44:26.934Z,0
2017-09-05T02:45:07.473Z,0
2017-09-05T02:45:48.013Z,0
2017-09-05T02:46:28.545Z,0
2017-09-05T02:47:09.090Z,0
2017-09-05T02:47:49.631Z,0
2017-09-05T02:48:30.174Z,0
2017-09-05T02:49:10.700Z,0
2017-09-05T02:49:51.233Z,0
2017-09-05T02:50:31.778Z,0
2017-09-05T02:51:12.316Z,0
2017-09-05T02:51:52.856Z,0
2017-09-05T02:52:33.377Z,0
2017-09-05T02:53:13.910Z,0
2017-09-05T02:53:54.454Z,0
2017-09-05T02:54:34.995Z,0
2017-09-05T02:55:15.539Z,0
2017-09-05T02:55:56.073Z,0
2017-09-05T02:56:36.626Z,0
2017-09-05T02:57:17.164Z,0
2017-09-05T02:57:57.701Z,0
2017-09-05T02:58:38.278Z,0
2017-09-05T02:59:18.813Z,0
2017-09-05T02:59:59.353Z,0
2017-09-05T03:00:39.885Z,0
2017-09-05T03:01:20.416Z,0
2017-09-05T03:02:00.950Z,0
2017-09-05T03:02:41.491Z,0
2017-09-05T03:03:22.031Z,0
2017-09-05T03:04:02.563Z,0
2017-09-05T03:04:43.107Z,0
2017-09-05T03:05:23.640Z,0
2017-09-05T03:06:04.181Z,0
2017-09-05T03:06:44.717Z,0
2017-09-05T03:07:25.255Z,0
2017-09-05T03:08:05.802Z,0
2017-09-05T03:08:46.338Z,0
2017-09-05T03:09:26.882Z,0
2017-09-05T03:11:41.123Z,0
2017-09-05T03:12:21.706Z,0
2017-09-05T03:13:02.249Z,0
2017-09-05T03:13:42.785Z,0
2017-09-05T03:14:23.324Z,0
2017-09-05T03:15:03.863Z,0
2017-09-05T03:15:44.395Z,0
2017-09-05T03:16:24.936Z,0
2017-09-05T03:17:05.471Z,0
2017-09-05T03:17:46.009Z,0
2017-09-05T03:18:26.547Z,0
2017-09-05T03:19:07.085Z,0
2017-09-05T03:19:47.622Z,0
2017-09-05T03:20:28.151Z,0
2017-09-05T03:21:08.684Z,0
2017-09-05T03:21:49.228Z,0
2017-09-05T03:22:29.765Z,0
2017-09-05T03:23:10.307Z,0
2017-09-05T03:23:50.825Z,0
2017-09-05T03:24:31.355Z,0
2017-09-05T03:25:11.877Z,0
2017-09-05T03:25:52.410Z,0
2017-09-05T03:26:32.947Z,0
2017-09-05T03:27:13.478Z,0
2017-09-05T03:27:54.022Z,0
2017-09-05T03:28:34.555Z,0
2017-09-05T03:29:15.073Z,0
2017-09-05T03:29:55.611Z,0
2017-09-05T03:30:36.157Z,0
2017-09-05T03:31:16.691Z,0
2017-09-05T03:31:57.225Z,0
2017-09-05T03:32:37.759Z,0
2017-09-05T03:33:18.312Z,0
2017-09-05T03:33:58.844Z,0
2017-09-05T03:34:39.379Z,0
2017-09-05T03:35:19.914Z,0
2017-09-05T03:36:00.448Z,0
2017-09-05T03:36:40.983Z,0
2017-09-05T03:37:21.521Z,0
2017-09-05T03:38:02.039Z,0
2017-09-05T03:38:42.574Z,0
2017-09-05T03:39:23.128Z,0
2017-09-05T03:40:03.669Z,0
2017-09-05T03:40:44.208Z,0
2017-09-05T03:41:24.889Z,0
2017-09-05T03:42:05.424Z,0
2017-09-05T03:42:45.961Z,0
2017-09-05T03:43:26.502Z,0
2017-09-05T03:44:07.067Z,0
2017-09-05T03:44:47.631Z,0
2017-09-05T03:45:28.165Z,0
2017-09-05T03:46:08.708Z,0
2017-09-05T03:46:49.248Z,0
2017-09-05T03:47:29.779Z,0
2017-09-05T03:48:10.316Z,0
2017-09-05T03:48:50.850Z,0
2017-09-05T03:49:31.385Z,0
2017-09-05T03:50:11.944Z,0
2017-09-05T03:50:52.482Z,0
2017-09-05T03:51:33.019Z,0
2017-09-05T03:52:13.554Z,0
2017-09-05T03:52:54.091Z,0
2017-09-05T03:53:34.618Z,0
2017-09-05T03:54:15.157Z,0
2017-09-05T03:54:55.688Z,0
2017-09-05T03:55:36.210Z,0
2017-09-05T03:56:16.749Z,0
2017-09-05T03:56:57.789Z,0
2017-09-05T03:57:39.654Z,0
2017-09-05T03:58:21.965Z,0
2017-09-05T03:59:21.712Z,0
2017-09-05T04:00:25.910Z,0
2017-09-05T04:01:07.974Z,0
2017-09-05T04:01:50.020Z,0
2017-09-05T04:02:32.218Z,0
2017-09-05T04:03:28.829Z,0
2017-09-05T04:04:44.813Z,0
2017-09-05T04:05:35.400Z,0
2017-09-05T04:06:36.122Z,0
2017-09-05T04:07:52.315Z,0
2017-09-05T04:09:07.213Z,0
2017-09-05T04:10:19.583Z,0
2017-09-05T04:11:05.012Z,0
2017-09-05T04:11:47.737Z,0
2017-09-05T04:12:30.229Z,0
2017-09-05T04:13:12.824Z,0
2017-09-05T04:13:55.790Z,0
2017-09-05T04:14:38.197Z,0
2017-09-05T04:17:15.320Z,0
2017-09-05T04:17:57.906Z,0
2017-09-05T04:19:01.825Z,0
2017-09-05T04:20:04.571Z,0
2017-09-05T04:20:54.048Z,0
2017-09-05T04:21:36.041Z,0
2017-09-05T04:22:18.940Z,0
2017-09-05T04:23:01.572Z,0
2017-09-05T04:23:43.454Z,0
2017-09-05T04:24:26.095Z,0
2017-09-05T04:25:09.028Z,0
2017-09-05T04:25:51.589Z,0
2017-09-05T04:26:34.804Z,0
2017-09-05T04:27:17.277Z,0
2017-09-05T04:27:59.612Z,0
2017-09-05T04:28:42.044Z,0
2017-09-05T04:29:24.755Z,0
2017-09-05T04:30:06.707Z,4
2017-09-05T04:30:49.728Z,4
2017-09-05T04:31:31.921Z,4
2017-09-05T04:33:33.081Z,4
2017-09-05T04:34:15.497Z,4
2017-09-05T04:34:57.670Z,4
2017-09-05T04:35:40.580Z,4
2017-09-05T04:36:23.471Z,4
2017-09-05T04:37:05.803Z,8
2017-09-05T04:37:48.214Z,4
2017-09-05T04:38:30.531Z,8
2017-09-05T04:40:52.779Z,8
2017-09-05T04:41:35.216Z,12
2017-09-05T04:42:18.179Z,12
2017-09-05T04:43:00.689Z,12
2017-09-05T04:43:43.099Z,16
2017-09-05T04:44:25.511Z,16
2017-09-05T04:45:08.511Z,20
2017-09-05T04:45:51.850Z,20
2017-09-05T04:46:34.178Z,24
2017-09-05T04:47:16.001Z,20
2017-09-05T04:47:58.797Z,24
2017-09-05T04:48:41.198Z,24
2017-09-05T04:49:23.335Z,28
2017-09-05T04:50:05.510Z,28
2017-09-05T04:50:54.016Z,28
2017-09-05T04:51:50.230Z,32
2017-09-05T04:52:48.625Z,36
2017-09-05T04:53:55.732Z,40
2017-09-05T04:55:00.346Z,48
2017-09-05T04:57:23.852Z,68
2017-09-05T04:58:06.031Z,72
2017-09-05T04:58:49.055Z,76
2017-09-05T04:59:31.353Z,80
2017-09-05T05:02:07.445Z,92
2017-09-05T05:02:47.981Z,96
2017-09-05T05:03:28.502Z,96
2017-09-05T05:04:09.048Z,96
2017-09-05T05:04:49.580Z,96
2017-09-05T05:05:30.111Z,100
2017-09-05T05:06:10.643Z,100
2017-09-05T05:06:51.188Z,104
2017-09-05T05:07:31.707Z,108
2017-09-05T05:08:12.252Z,116
2017-09-05T05:08:52.784Z,120
2017-09-05T05:09:33.331Z,124
2017-09-05T05:10:13.886Z,128
2017-09-05T05:10:54.413Z,132
2017-09-05T05:11:34.964Z,136
2017-09-05T05:12:15.492Z,140
2017-09-05T05:12:56.032Z,148
2017-09-05T05:13:36.561Z,160
2017-09-05T05:14:17.097Z,168
2017-09-05T05:14:57.623Z,184
2017-09-05T05:15:38.150Z,184
2017-09-05T05:16:18.701Z,188
2017-09-05T05:16:59.230Z,192
2017-09-05T05:17:39.759Z,200
2017-09-05T05:18:20.300Z,212
2017-09-05T05:19:00.829Z,232
2017-09-05T05:19:41.359Z,256
2017-09-05T05:20:21.897Z,272
2017-09-05T05:21:02.432Z,284
2017-09-05T05:21:42.973Z,296
2017-09-05T05:22:23.514Z,312
2017-09-05T05:23:04.056Z,328
2017-09-05T05:23:44.581Z,348
2017-09-05T05:24:25.116Z,360
2017-09-05T05:25:05.656Z,380
2017-09-05T05:25:46.192Z,392
2017-09-05T05:26:26.720Z,404
2017-09-05T05:27:07.257Z,424
2017-09-05T05:27:47.778Z,448
2017-09-05T05:28:28.313Z,464
2017-09-05T05:29:08.856Z,492
2017-09-05T05:29:49.404Z,516
2017-09-05T05:30:29.930Z,540
2017-09-05T05:31:10.469Z,568
2017-09-05T05:31:51.008Z,580
2017-09-05T05:32:31.572Z,568
2017-09-05T05:33:12.114Z,552
2017-09-05T05:33:52.651Z,544
2017-09-05T05:34:33.188Z,556
2017-09-05T05:35:13.722Z,576
2017-09-05T05:35:54.258Z,584
2017-09-05T05:36:34.800Z,596
2017-09-05T05:37:15.336Z,596
2017-09-05T05:37:55.875Z,576
2017-09-05T05:38:36.395Z,532
2017-09-05T05:39:16.936Z,484
2017-09-05T05:39:57.481Z,460
2017-09-05T05:40:38.017Z,452
2017-09-05T05:41:18.555Z,456
2017-09-05T05:41:59.091Z,468
2017-09-05T05:42:39.628Z,484
2017-09-05T05:43:20.163Z,492
2017-09-05T05:44:00.704Z,480
2017-09-05T05:44:41.238Z,468
2017-09-05T05:45:21.779Z,472
2017-09-05T05:46:02.318Z,480
2017-09-05T05:46:42.893Z,508
2017-09-05T05:47:23.425Z,544
2017-09-05T05:48:03.969Z,568
2017-09-05T05:48:44.506Z,588
2017-09-05T05:49:25.054Z,600
2017-09-05T05:50:05.588Z,620
2017-09-05T05:50:46.125Z,636
2017-09-05T05:51:26.661Z,644
2017-09-05T05:52:07.196Z,652
2017-09-05T05:52:47.731Z,664
2017-09-05T05:53:28.267Z,672
2017-09-05T05:54:08.795Z,676
2017-09-05T05:54:49.332Z,680
2017-09-05T05:55:29.863Z,716
2017-09-05T05:56:10.405Z,792
2017-09-05T05:56:50.928Z,868
2017-09-05T05:57:31.448Z,924
2017-09-05T05:58:11.995Z,952
2017-09-05T05:58:52.527Z,964
2017-09-05T05:59:33.058Z,980
2017-09-05T06:00:13.590Z,1008
2017-09-05T06:00:54.130Z,1040
2017-09-05T06:01:34.661Z,1076
2017-09-05T06:02:17.291Z,1116
2017-09-05T06:02:57.834Z,1148
2017-09-05T06:03:38.374Z,1164
2017-09-05T06:04:18.932Z,1188
2017-09-05T06:04:59.458Z,1212
2017-09-05T06:05:39.998Z,1236
2017-09-05T06:06:20.533Z,1228
2017-09-05T06:07:01.049Z,1244
2017-09-05T06:07:41.584Z,1260
2017-09-05T06:08:22.119Z,1288
2017-09-05T06:09:02.682Z,1320
2017-09-05T06:09:43.214Z,1320
2017-09-05T06:10:23.752Z,1304
2017-09-05T06:11:04.291Z,1288
2017-09-05T06:11:44.811Z,1268
2017-09-05T06:12:25.349Z,1284
2017-09-05T06:13:05.890Z,1320
2017-09-05T06:13:46.423Z,1364
2017-09-05T06:14:26.960Z,1400
2017-09-05T06:15:07.486Z,1444
2017-09-05T06:15:48.026Z,1484
2017-09-05T06:16:28.553Z,1544
2017-09-05T06:17:09.091Z,1588
2017-09-05T06:17:49.629Z,1636
2017-09-05T06:18:30.163Z,1640
2017-09-05T06:19:10.710Z,1648
2017-09-05T06:19:51.258Z,1636
2017-09-05T06:20:31.777Z,1636
2017-09-05T06:21:12.313Z,1620
2017-09-05T06:21:52.849Z,1592
2017-09-05T06:22:33.370Z,1564
2017-09-05T06:23:13.942Z,1548
2017-09-05T06:23:54.459Z,1528
2017-09-05T06:24:35.023Z,1516
2017-09-05T06:25:15.559Z,1520
2017-09-05T06:25:56.106Z,1528
2017-09-05T06:26:36.647Z,1536
2017-09-05T06:27:17.160Z,1544
2017-09-05T06:27:57.700Z,1544
2017-09-05T06:28:38.249Z,1540
2017-09-05T06:29:18.805Z,1548
2017-09-05T06:29:59.342Z,1572
2017-09-05T06:30:39.873Z,1600
2017-09-05T06:31:20.418Z,1632
2017-09-05T06:32:00.952Z,1640
2017-09-05T06:32:41.482Z,1652
2017-09-05T06:33:22.018Z,1656
2017-09-05T06:34:02.566Z,1648
2017-09-05T06:34:43.104Z,1668
2017-09-05T06:35:23.630Z,1720
2017-09-05T06:36:04.174Z,1752
2017-09-05T06:36:44.698Z,1772
2017-09-05T06:37:25.234Z,1784
2017-09-05T06:38:05.772Z,1820
2017-09-05T06:38:46.312Z,1888
2017-09-05T06:39:26.845Z,1948
2017-09-05T06:40:07.380Z,2020
2017-09-05T06:40:47.914Z,2148
2017-09-05T06:41:28.440Z,2296
2017-09-05T06:42:08.972Z,2380
2017-09-05T06:42:49.520Z,2404
2017-09-05T06:43:30.058Z,2480
2017-09-05T06:44:10.596Z,2604
2017-09-05T06:44:51.137Z,2716
2017-09-05T06:45:31.661Z,2820
2017-09-05T06:46:12.193Z,2884
2017-09-05T06:46:52.729Z,2928
2017-09-05T06:47:33.261Z,2880
2017-09-05T06:48:13.790Z,2788
2017-09-05T06:48:54.323Z,2696
2017-09-05T06:49:34.856Z,2640
2017-09-05T06:50:15.393Z,2596
2017-09-05T06:50:55.924Z,2592
2017-09-05T06:51:36.456Z,2600
2017-09-05T06:52:17.007Z,2612
2017-09-05T06:52:57.540Z,2664
2017-09-05T06:53:38.075Z,2740
2017-09-05T06:54:18.605Z,2788
2017-09-05T06:54:59.141Z,2820
2017-09-05T06:55:39.687Z,2876
2017-09-05T06:56:20.228Z,2940
2017-09-05T06:57:00.764Z,2996
2017-09-05T06:57:41.306Z,3120
2017-09-05T06:58:21.850Z,3240
2017-09-05T06:59:02.396Z,3336
2017-09-05T06:59:42.913Z,3400
2017-09-05T07:00:23.446Z,3488
2017-09-05T07:01:03.983Z,3556
2017-09-05T07:01:44.521Z,3584
2017-09-05T07:02:25.046Z,3588
2017-09-05T07:03:05.582Z,3592
2017-09-05T07:03:46.112Z,3616
2017-09-05T07:04:26.648Z,3732
2017-09-05T07:05:07.212Z,3868
2017-09-05T07:05:47.749Z,4028
2017-09-05T07:06:28.290Z,4180
2017-09-05T07:07:08.828Z,4300
2017-09-05T07:07:49.364Z,4428
2017-09-05T07:08:29.905Z,4536
2017-09-05T07:09:10.433Z,4632
2017-09-05T07:09:50.979Z,4640
2017-09-05T07:10:31.510Z,4612
2017-09-05T07:11:12.046Z,4536
2017-09-05T07:11:52.590Z,4428
2017-09-05T07:12:33.124Z,4356
2017-09-05T07:13:13.657Z,4364
2017-09-05T07:13:54.210Z,4348
2017-09-05T07:14:34.745Z,4340
2017-09-05T07:15:15.278Z,4380
2017-09-05T07:15:55.818Z,4452
2017-09-05T07:16:36.351Z,4580
2017-09-05T07:17:16.895Z,4696
2017-09-05T07:17:57.434Z,4816
2017-09-05T07:18:37.974Z,4824
2017-09-05T07:19:18.511Z,4868
2017-09-05T07:19:59.041Z,4916
2017-09-05T07:20:39.570Z,5016
2017-09-05T07:21:20.107Z,5064
2017-09-05T07:22:00.664Z,5092
2017-09-05T07:22:41.200Z,5124
2017-09-05T07:23:21.736Z,5224
2017-09-05T07:24:02.269Z,5348
2017-09-05T07:24:42.802Z,5316
2017-09-05T07:25:23.335Z,5408
2017-09-05T07:26:03.878Z,5492
2017-09-05T07:26:44.416Z,5460
2017-09-05T07:27:24.954Z,5400
2017-09-05T07:28:05.483Z,5328
2017-09-05T07:28:46.037Z,5372
2017-09-05T07:29:26.570Z,5388
2017-09-05T07:30:07.112Z,5332
2017-09-05T07:30:47.636Z,5420
2017-09-05T07:31:28.171Z,5488
2017-09-05T07:32:08.768Z,5472
2017-09-05T07:32:49.294Z,5512
2017-09-05T07:33:29.830Z,5616
2017-09-05T07:34:10.368Z,5640
2017-09-05T07:34:50.886Z,5724
2017-09-05T07:35:31.430Z,5716
2017-09-05T07:36:11.959Z,5736
2017-09-05T07:36:52.485Z,5800
2017-09-05T07:37:33.022Z,5904
2017-09-05T07:38:13.567Z,5996
2017-09-05T07:38:54.120Z,6148
2017-09-05T07:39:34.644Z,6284
2017-09-05T07:40:15.181Z,6380
2017-09-05T07:40:55.724Z,6356
2017-09-05T07:41:36.247Z,6272
2017-09-05T07:42:16.781Z,6200
2017-09-05T07:42:57.323Z,6236
2017-09-05T07:43:37.871Z,6268
2017-09-05T07:44:18.394Z,6252
2017-09-05T07:44:58.934Z,6196
2017-09-05T07:45:39.475Z,6164
2017-09-05T07:46:19.991Z,6124
2017-09-05T07:47:00.528Z,6008
2017-09-05T07:47:41.070Z,5872
2017-09-05T07:48:21.613Z,5680
2017-09-05T07:49:02.148Z,5524
2017-09-05T07:49:42.691Z,5372
2017-09-05T07:50:23.218Z,5104
2017-09-05T07:51:03.753Z,4668
2017-09-05T07:51:44.293Z,4328
2017-09-05T07:52:24.828Z,4164
2017-09-05T07:53:05.358Z,4036
2017-09-05T07:53:45.895Z,4092
2017-09-05T07:54:26.433Z,4372
2017-09-05T07:55:06.972Z,4648
2017-09-05T07:55:47.510Z,4888
2017-09-05T07:56:28.050Z,5072
2017-09-05T07:57:08.589Z,5084
2017-09-05T07:57:49.132Z,4956
2017-09-05T07:58:29.673Z,4812
2017-09-05T07:59:10.380Z,4720
2017-09-05T07:59:50.918Z,4632
2017-09-05T08:00:31.458Z,4624
2017-09-05T08:01:11.994Z,4616
2017-09-05T08:01:52.533Z,4632
2017-09-05T08:02:33.072Z,4532
2017-09-05T08:03:13.607Z,4488
2017-09-05T08:03:54.155Z,4708
2017-09-05T08:04:34.705Z,4992
2017-09-05T08:05:15.254Z,5280
2017-09-05T08:05:55.788Z,5428
2017-09-05T08:06:36.327Z,5464
2017-09-05T08:07:16.864Z,5500
2017-09-05T08:07:57.404Z,5572
2017-09-05T08:08:37.945Z,5732
2017-09-05T08:09:18.483Z,5820
2017-09-05T08:09:59.024Z,5848
2017-09-05T08:10:39.573Z,5808
2017-09-05T08:11:20.129Z,5708
2017-09-05T08:12:00.664Z,5600
2017-09-05T08:12:41.197Z,5536
2017-09-05T08:13:21.723Z,5484
2017-09-05T08:14:02.263Z,5448
2017-09-05T08:14:42.804Z,5460
2017-09-05T08:15:23.351Z,5532
2017-09-05T08:16:03.893Z,5700
2017-09-05T08:16:44.430Z,5876
2017-09-05T08:17:24.981Z,6020
2017-09-05T08:18:05.530Z,6180
2017-09-05T08:18:46.072Z,6372
2017-09-05T08:19:26.599Z,6500
2017-09-05T08:20:07.133Z,6588
2017-09-05T08:20:47.701Z,6752
2017-09-05T08:21:28.241Z,6940
2017-09-05T08:22:08.780Z,7080
2017-09-05T08:22:49.317Z,7144
2017-09-05T08:23:29.860Z,7260
2017-09-05T08:24:10.398Z,7360
2017-09-05T08:24:50.932Z,7544
2017-09-05T08:25:31.482Z,7776
2017-09-05T08:26:12.014Z,7948
2017-09-05T08:26:52.648Z,8144
2017-09-05T08:27:33.186Z,8432
2017-09-05T08:28:13.726Z,8632
2017-09-05T08:28:54.269Z,8780
2017-09-05T08:29:34.809Z,8992
2017-09-05T08:30:15.348Z,9180
2017-09-05T08:30:55.893Z,9468
2017-09-05T08:31:36.448Z,9740
2017-09-05T08:32:16.986Z,10208
2017-09-05T08:32:57.520Z,10724
2017-09-05T08:33:38.050Z,10556
2017-09-05T08:34:18.594Z,10484
2017-09-05T08:34:59.133Z,10308
2017-09-05T08:35:39.674Z,10132
2017-09-05T08:36:20.205Z,10028
2017-09-05T08:37:00.745Z,9896
2017-09-05T08:37:41.309Z,9780
2017-09-05T08:38:21.842Z,9552
2017-09-05T08:39:02.389Z,9600
2017-09-05T08:39:42.946Z,9672
2017-09-05T08:40:23.465Z,9760
2017-09-05T08:41:03.990Z,9824
2017-09-05T08:41:44.550Z,9812
2017-09-05T08:42:25.083Z,9640
2017-09-05T08:43:05.613Z,9560
2017-09-05T08:43:46.158Z,9840
2017-09-05T08:44:26.695Z,9872
2017-09-05T08:45:07.214Z,10036
2017-09-05T08:45:47.754Z,10344
2017-09-05T08:46:28.291Z,10328
2017-09-05T08:47:08.834Z,10380
2017-09-05T08:47:49.376Z,10588
2017-09-05T08:48:29.905Z,10836
2017-09-05T08:49:10.441Z,10924
2017-09-05T08:49:50.981Z,10940
2017-09-05T08:50:31.514Z,10960
2017-09-05T08:51:12.053Z,10892
2017-09-05T08:51:52.601Z,10924
2017-09-05T08:52:33.148Z,10928
2017-09-05T08:53:13.693Z,10904
2017-09-05T08:53:54.246Z,10644
2017-09-05T08:54:34.794Z,10528
2017-09-05T08:55:15.334Z,10752
2017-09-05T08:55:55.870Z,10884
2017-09-05T08:56:36.408Z,10780
2017-09-05T08:57:16.952Z,10980
2017-09-05T08:57:57.490Z,10976
2017-09-05T08:58:38.025Z,10924
2017-09-05T08:59:18.561Z,10732
2017-09-05T08:59:59.101Z,10736
2017-09-05T09:00:39.647Z,10812
2017-09-05T09:01:20.206Z,10964
2017-09-05T09:02:00.748Z,11248
2017-09-05T09:02:41.277Z,11900
2017-09-05T09:03:21.838Z,13236
2017-09-05T09:04:02.380Z,15356
2017-09-05T09:04:42.917Z,18816
2017-09-05T09:05:23.473Z,13240
2017-09-05T09:06:03.988Z,13880
2017-09-05T09:06:44.522Z,51328
2017-09-05T09:07:25.065Z,27840
2017-09-05T09:08:05.607Z,16016
2017-09-05T09:08:46.148Z,58368
2017-09-05T09:09:26.683Z,15388
2017-09-05T09:10:07.224Z,37664
2017-09-05T09:10:47.765Z,45216
2017-09-05T09:11:28.304Z,25088
2017-09-05T09:12:08.873Z,36320
2017-09-05T09:12:49.386Z,38208
2017-09-05T09:13:29.925Z,23104
2017-09-05T09:14:10.471Z,28640
2017-09-05T09:14:51.013Z,35424
2017-09-05T09:15:31.557Z,22176
2017-09-05T09:16:12.082Z,15592
2017-09-05T09:16:52.640Z,11772
2017-09-05T09:17:33.171Z,10232
2017-09-05T09:18:13.701Z,11128
2017-09-05T09:18:54.239Z,13544
2017-09-05T09:19:34.780Z,16352
2017-09-05T09:20:15.326Z,12856
2017-09-05T09:20:55.867Z,11216
2017-09-05T09:21:36.411Z,11388
2017-09-05T09:22:16.939Z,10708
2017-09-05T09:22:57.481Z,9520
2017-09-05T09:23:38.005Z,9188
2017-09-05T09:24:18.547Z,8192
2017-09-05T09:24:59.092Z,7128
2017-09-05T09:25:39.635Z,6684
2017-09-05T09:26:20.178Z,6424
2017-09-05T09:27:00.725Z,6320
2017-09-05T09:27:41.282Z,6296
2017-09-05T09:28:21.828Z,6300
2017-09-05T09:29:02.364Z,6380
2017-09-05T09:29:42.917Z,6556
2017-09-05T09:30:23.479Z,6904
2017-09-05T09:31:04.026Z,7452
2017-09-05T09:31:44.560Z,8380
2017-09-05T09:32:25.130Z,9528
2017-09-05T09:33:05.670Z,10916
2017-09-05T09:33:46.201Z,11596
2017-09-05T09:34:26.742Z,11052
2017-09-05T09:35:07.363Z,9044
2017-09-05T09:35:47.909Z,9788
2017-09-05T09:36:28.453Z,8392
2017-09-05T09:37:08.991Z,8216
2017-09-05T09:37:49.540Z,7404
2017-09-05T09:38:30.074Z,7404
2017-09-05T09:39:10.609Z,7268
2017-09-05T09:39:51.148Z,6940
2017-09-05T09:40:31.675Z,6856
2017-09-05T09:41:12.224Z,6884
2017-09-05T09:41:52.796Z,6916
2017-09-05T09:42:33.335Z,6968
2017-09-05T09:43:13.905Z,7068
2017-09-05T09:43:54.423Z,7168
2017-09-05T09:44:34.967Z,7312
2017-09-05T09:45:15.512Z,7504
2017-09-05T09:45:56.063Z,8332